Latest Coastal Weather Observations for East Sale

IDV60701

Issued at 7:51 am EST Wednesday 27 July 2016 (issued every 10 minutes, with the page automatically refreshed every 10 minutes)

About coastal observations | Map of coastal stations | Coastal observations for VIC | Marine services | Other Formats
Station Details ID: 085072 Name: EAST SALE AIRPORT Lat: -38.12 Lon: 147.13 Height: 4.6 m
Data from the previous 72 hours. | See also: Recent months at East Sale
Date/Time
EST
Temp
°C
Wind Pressure Rain since
9am
mm
Weather Cloud Vis
km
Sea
Height
m
Swell
Dir  Spd
kts
Gust
kts
hPa Trend Height
m
Period
s
Dir
27/07:30am 7.9 NW 6 7 1008.1 - 0.0 - Mostly cloudy 10 - - - -
27/07:00am 8.4 WNW 9 12 1007.6 - 0.0 - Mostly cloudy 10 - - - -
27/06:30am 7.5 WNW 13 15 1006.8 - 0.0 - Partly cloudy 10 - - - -
27/06:00am 7.7 WNW 11 12 1006.4 R 0.0 - Cloudy 10 - - - -
27/05:30am 6.9 W 7 9 1005.9 - 0.0 - Cloudy 10 - - - -
27/05:00am 4.4 W 4 5 1005.3 - 0.0 - - 10 - - - -
27/04:30am 4.1 NNW 6 7 1004.9 - 0.0 - - 10 - - - -
27/04:00am 5.3 N 6 8 1004.6 - 0.0 - - 10 - - - -
27/03:30am 6.1 NW 5 7 1004.8 - 0.0 - - 10 - - - -
27/03:00am 6.1 CALM 0 0 1004.6 F 0.0 - Cloudy 10 - - - -
27/02:30am 5.8 SSE 3 5 1005.0 - 0.0 - Partly cloudy 10 - - - -
27/02:00am 5.2 NNE 5 11 1005.3 - 0.0 - Partly cloudy 10 - - - -
27/01:30am 6.7 N 3 5 1005.5 - 0.0 - Partly cloudy 10 - - - -
27/01:00am 8.0 WNW 4 5 1006.0 - 0.0 - - 10 - - - -
27/12:30am 8.6 NNW 9 15 1005.7 - 0.0 - - 10 - - - -
27/12:00am 7.3 N 5 8 1006.4 F 0.0 - Cloudy 10 - - - -
 
Date/Time
EST
Temp
°C
Wind Pressure Rain since
9am
mm
Weather Cloud Vis
km
Sea
Height
m
Swell
Dir  Spd
kts
Gust
kts
hPa Trend Height
m
Period
s
Dir
26/11:30pm 8.0 NNW 5 11 1006.8 - 0.0 - - 10 - - - -
26/11:00pm 7.3 NNE 5 8 1006.8 - 0.0 - - 10 - - - -
26/10:30pm 7.3 WNW 7 9 1006.7 - 0.0 - - 10 - - - -
26/10:00pm 7.5 N 5 8 1007.1 - 0.0 - - 10 - - - -
26/09:30pm 6.7 N 4 6 1007.4 - 0.0 - - 10 - - - -
26/09:00pm 8.4 NW 11 13 1007.6 F 0.0 - Mostly clear 10 - - - -
26/08:30pm 8.1 NNW 5 8 1007.6 - 0.0 - - 10 - - - -
26/08:00pm 7.4 N 3 6 1008.0 - 0.0 - Partly cloudy 10 - - - -
26/07:30pm 6.8 NE 4 4 1008.1 - 0.0 - Partly cloudy 10 - - - -
26/07:00pm 7.6 NW 9 12 1008.4 - 0.0 - - 10 - - - -
26/06:30pm 7.5 NNW 7 10 1008.6 - 0.0 - - 10 - - - -
26/06:00pm 7.8 NW 6 7 1008.5 F 0.0 - - 10 - - - -
26/05:30pm 8.1 NW 6 8 1008.4 - 0.0 - - 10 - - - -
26/05:00pm 9.4 NW 10 15 1008.2 - 0.0 - - 10 - - - -
26/04:30pm 9.9 NW 9 13 1008.4 - 0.0 - - 10 - - - -
26/04:00pm 10.1 NW 16 21 1008.9 - 0.0 - - 10 - - - -
26/03:30pm 11.2 NW 19 26 1009.0 - 0.0 - - 10 - - - -
26/03:13pm 11.5 NW 17 27 1008.9 - 0.0 - - 10 - - - -
26/03:00pm 11.6 WNW 15 24 1009.2 F 0.0 - Mostly cloudy 10 - - - -
26/02:30pm 10.8 WNW 13 18 1009.5 - 0.0 - - 10 - - - -
26/02:00pm 10.7 NW 17 22 1009.8 - 0.0 - - 10 - - - -
26/01:30pm 10.6 NW 19 25 1010.1 - 0.0 - - 10 - - - -
26/01:00pm 10.5 NW 20 27 1010.5 - 0.0 - - 10 - - - -
26/12:30pm 11.0 NW 19 26 1011.1 - 0.0 - - 10 - - - -
26/12:00pm 10.6 NW 22 29 1011.3 R 0.0 - Partly cloudy 10 - - - -
26/11:30am 10.7 NW 18 26 1011.6 - 0.0 - Partly cloudy 10 - - - -
26/11:06am 10.5 NW 17 27 1011.7 - 0.0 - Cloudy 10 - - - -
26/11:00am 10.7 NW 19 27 1011.6 - 0.0 - Partly cloudy 10 - - - -
26/10:30am 10.3 NW 17 23 1011.6 - 0.0 - Partly cloudy 10 - - - -
26/10:00am 10.6 NW 16 21 1011.2 - 0.0 - Partly cloudy 10 - - - -
26/09:30am 10.2 NW 13 19 1011.5 - 0.0 - Partly cloudy 10 - - - -
26/09:00am 9.3 NW 12 17 1011.3 R 2.4 - - 10 - - - -
26/08:30am 8.7 NW 17 23 1010.6 - 2.4 - Partly cloudy 10 - - - -
26/08:12am 8.8 NW 16 26 1010.6 - 2.4 - Partly cloudy 10 - - - -
26/08:00am 9.0 WNW 19 26 1010.5 - 2.4 - Partly cloudy 10 - - - -
26/07:30am 8.1 WNW 11 14 1010.5 - 2.4 - Cloudy 10 - - - -
26/07:01am 8.1 WNW 9 13 1010.2 - 2.4 - Partly cloudy 10 - - - -
26/07:00am 8.1 WNW 10 14 1010.1 - 2.4 - Partly cloudy 10 - - - -
26/06:30am 7.6 WNW 13 15 1009.4 - 2.4 - Partly cloudy 10 - - - -
26/06:00am 7.8 WNW 14 18 1009.0 R 2.4 - Mostly clear 10 - - - -
26/05:40am 8.1 WNW 18 28 1008.7 - 2.4 - Partly cloudy 10 - - - -
26/05:30am 7.9 WNW 18 24 1008.4 - 2.4 - Partly cloudy 10 - - - -
26/05:11am 8.3 WNW 15 26 1008.3 - 2.4 - Partly cloudy 10 - - - -
26/05:00am 8.1 WNW 12 21 1008.4 - 2.4 - Partly cloudy 10 - - - -
26/04:30am 6.6 WNW 11 14 1007.8 - 2.4 - Partly cloudy 10 - - - -
26/04:00am 6.7 NNW 5 7 1007.6 - 2.4 - Partly cloudy 10 - - - -
26/03:30am 7.7 NW 8 12 1007.2 - 2.4 - Partly cloudy 10 - - - -
26/03:00am 7.9 WNW 16 22 1007.0 R 2.4 - Mostly clear 10 - - - -
26/02:30am 8.0 WNW 18 27 1006.9 - 2.4 - - 10 - - - -
26/02:23am 8.1 WNW 19 29 1007.0 - 2.4 - - 10 - - - -
26/02:00am 8.1 WNW 22 29 1006.7 - 2.4 - - 10 - - - -
26/01:30am 7.9 W 21 28 1006.6 - 2.4 - - 10 - - - -
26/01:18am 8.1 W 21 31 1006.4 - 2.4 - - 10 - - - -
26/01:00am 7.7 WNW 24 29 1006.1 - 2.4 - - 10 - - - -
26/12:30am 8.0 WNW 23 33 1005.7 - 2.4 - Partly cloudy 10 - - - -
26/12:29am 8.0 WNW 23 33 1005.8 - 2.4 - Partly cloudy 10 - - - -
26/12:00am 8.1 WNW 20 27 1005.5 R 2.4 - Mostly cloudy 10 - - - -
 
Date/Time
EST
Temp
°C
Wind Pressure Rain since
9am
mm
Weather Cloud Vis
km
Sea
Height
m
Swell
Dir  Spd
kts
Gust
kts
hPa Trend Height
m
Period
s
Dir
25/11:30pm 7.7 WNW 21 26 1005.1 - 2.4 - Partly cloudy 10 - - - -
25/11:23pm 7.9 WNW 23 31 1005.0 - 2.4 - Partly cloudy 10 - - - -
25/11:00pm 8.7 WNW 31 42 1004.7 - 2.4 - Partly cloudy 10 - - - -
25/10:48pm 8.9 W 26 40 1004.7 - 2.4 - Partly cloudy 10 - - - -
25/10:30pm 7.9 W 25 33 1004.7 - 2.4 - Partly cloudy 10 - - - -
25/10:00pm 7.9 W 27 39 1004.8 - 2.0 - Partly cloudy 10 - - - -
25/09:53pm 8.6 W 16 35 1004.9 - 2.0 - Partly cloudy 10 - - - -
25/09:33pm 8.6 W 15 25 1004.2 - 1.6 - Partly cloudy 7 - - - -
25/09:30pm 8.5 W 16 25 1004.2 - 1.6 - Partly cloudy 7 - - - -
25/09:25pm 8.5 W 15 25 1004.5 - 1.2 - Partly cloudy 8 - - - -
25/09:00pm 9.0 WSW 15 21 1004.3 R 0.0 - Cloudy 10 - - - -
25/08:53pm 9.4 W 17 25 1004.1 - 0.0 - Partly cloudy 10 - - - -
25/08:48pm 9.8 W 21 31 1003.7 - 0.0 - Partly cloudy 10 - - - -
25/08:30pm 11.5 WNW 20 29 1003.3 - 0.0 - Partly cloudy 10 - - - -
25/08:02pm 12.2 NNW 16 28 1001.9 - 0.0 - Cloudy 10 - - - -
25/08:00pm 12.4 NNW 16 21 1002.0 - 0.0 - Partly cloudy 10 - - - -
25/07:48pm 12.4 NNW 18 28 1001.9 - 0.0 - Partly cloudy 10 - - - -
25/07:30pm 11.7 NW 16 22 1002.0 - 0.0 - Partly cloudy 10 - - - -
25/07:09pm 11.9 NW 15 24 1002.6 - 0.0 - Cloudy 10 - - - -
25/07:00pm 11.8 NW 11 14 1002.5 - 0.0 - Cloudy 10 - - - -
25/06:30pm 11.9 NW 18 24 1002.6 - 0.0 - Cloudy 10 - - - -
25/06:13pm 11.8 NW 17 27 1003.3 - 0.0 - Cloudy 10 - - - -
25/06:00pm 12.0 NW 15 21 1003.4 F 0.0 - Mostly cloudy 10 - - - -
25/05:30pm 11.1 NW 17 23 1002.9 - 0.0 - Partly cloudy 10 - - - -
25/05:01pm 11.8 NW 27 37 1003.0 - 0.0 - - 10 - - - -
25/05:00pm 11.7 NW 28 37 1002.9 - 0.0 - - 10 - - - -
25/04:47pm 12.1 NW 26 38 1002.8 - 0.0 - - 10 - - - -
25/04:30pm 12.7 NW 25 32 1002.8 - 0.0 - Partly cloudy 10 - - - -
25/04:00pm 12.4 NW 16 24 1004.0 - 0.0 - - 10 - - - -
25/03:30pm 13.4 NW 19 26 1004.1 - 0.0 - - 10 - - - -
25/03:00pm 13.5 NW 17 23 1004.2 F 0.0 - - 10 - - - -
25/02:30pm 13.7 NW 18 24 1004.6 - 0.0 - Partly cloudy 10 - - - -
25/02:00pm 14.3 NW 19 24 1004.9 - 0.0 - Partly cloudy 10 - - - -
25/01:30pm 13.4 NW 19 25 1005.3 - 0.0 - Partly cloudy 10 - - - -
25/01:00pm 13.6 NW 18 24 1005.6 - 0.0 - Partly cloudy 10 - - - -
25/12:30pm 13.3 WNW 13 20 1006.2 - 0.0 - Mostly cloudy 10 - - - -
25/12:00pm 13.3 WNW 15 19 1006.6 S 0.0 - Mostly cloudy 10 - - - -
25/11:30am 13.9 WNW 16 20 1006.7 - 0.0 - Partly cloudy 10 - - - -
25/11:00am 12.7 NW 15 19 1007.0 - 0.0 - Mostly cloudy 10 - - - -
25/10:30am 12.2 NW 16 22 1007.0 - 0.0 - Mostly cloudy 10 - - - -
25/10:00am 11.0 NW 11 14 1007.2 - 0.0 - Mostly cloudy 10 - - - -
25/09:30am 9.4 NNW 5 6 1007.4 - 0.0 - Mostly cloudy 10 - - - -
25/09:00am 7.7 NNW 5 6 1007.3 R 0.0 - Cloudy 10 - - - -
25/08:30am 6.5 NNW 6 7 1007.1 - 0.0 Showers Mostly cloudy 10 - - - -
25/08:00am 5.4 NW 7 9 1007.1 - 0.0 - Mostly cloudy 10 - - - -
25/07:30am 4.7 W 4 5 1006.9 - 0.0 - Cloudy 10 - - - -
25/07:00am 4.1 NW 3 4 1006.6 - 0.0 - Cloudy 10 - - - -
25/06:30am 3.2 N 6 7 1006.1 - 0.0 - Cloudy 10 - - - -
25/06:00am 1.2 WNW 4 5 1006.1 R 0.0 - Mostly cloudy 10 - - - -
25/05:30am 1.6 ENE 2 3 1005.8 - 0.0 - Partly cloudy 10 - - - -
25/05:00am 1.6 NNE 3 4 1005.6 - 0.0 - - 10 - - - -
25/04:30am 1.9 N 4 5 1005.4 - 0.0 - - 10 - - - -
25/04:00am 2.3 CALM 0 0 1005.2 - 0.0 - - 10 - - - -
25/03:30am 2.7 CALM 0 0 1005.1 - 0.0 - - 10 - - - -
25/03:00am 3.7 NW 2 3 1005.0 R 0.0 - - 10 - - - -
25/02:30am 4.8 S 1 3 1005.1 - 0.0 - - 10 - - - -
25/02:00am 4.9 NW 5 6 1005.2 - 0.0 - Partly cloudy 10 - - - -
25/01:30am 5.9 NNW 6 7 1005.1 - 0.0 - Partly cloudy 10 - - - -
25/01:00am 5.7 NW 5 8 1005.0 - 0.0 - Partly cloudy 10 - - - -
25/12:30am 5.5 N 7 8 1004.9 - 0.0 - - 10 - - - -
25/12:00am 5.5 N 7 9 1004.9 F 0.0 - Cloudy 10 - - - -
 
Date/Time
EST
Temp
°C
Wind Pressure Rain since
9am
mm
Weather Cloud Vis
km
Sea
Height
m
Swell
Dir  Spd
kts
Gust
kts
hPa Trend Height
m
Period
s
Dir
24/11:30pm 5.7 N 5 6 1005.2 - 0.0 - Cloudy 10 - - - -
24/11:00pm 6.2 NNE 2 4 1005.3 - 0.0 - Partly cloudy 10 - - - -
24/10:30pm 6.2 N 4 6 1005.5 - 0.0 - Partly cloudy 10 - - - -
24/10:00pm 5.3 NNE 4 5 1005.7 - 0.0 - Partly cloudy 10 - - - -
24/09:30pm 5.5 NNE 6 8 1006.1 - 0.0 - - 10 - - - -
24/09:00pm 5.5 NNE 3 4 1006.2 F 0.0 - Cloudy 10 - - - -
24/08:30pm 6.4 NNE 5 6 1006.4 - 0.0 - - 10 - - - -
24/08:00pm 7.2 NNE 6 7 1006.6 - 0.0 - Partly cloudy 10 - - - -
24/07:30pm 7.4 N 4 9 1006.8 - 0.0 - - 10 - - - -
24/07:00pm 7.6 N 3 4 1006.8 - 0.0 - - 10 - - - -
24/06:30pm 8.3 N 6 6 1007.0 - 0.0 - - 10 - - - -
24/06:00pm 8.7 NNW 7 8 1007.1 F 0.0 - Cloudy 10 - - - -
24/05:30pm 9.4 NW 10 12 1007.0 - 0.0 - - 10 - - - -
24/05:00pm 10.1 WNW 17 21 1007.3 - 0.0 - Cloudy 10 - - - -
24/04:30pm 10.5 NW 18 24 1007.0 - 0.0 - Partly cloudy 10 - - - -
24/04:09pm 11.0 WNW 17 27 1006.9 - 0.0 - Partly cloudy 10 - - - -
24/04:00pm 11.4 WNW 17 22 1006.9 - 0.0 - Partly cloudy 10 - - - -
24/03:30pm 11.9 WNW 14 18 1006.9 - 0.0 - Partly cloudy 10 - - - -
24/03:00pm 12.1 NW 15 18 1007.0 F 0.0 - Mostly clear 10 - - - -
24/02:30pm 12.6 NW 16 21 1007.3 - 0.0 - Cloudy 10 - - - -
24/02:00pm 11.3 NW 15 19 1007.8 - 0.0 - Partly cloudy 10 - - - -
24/01:30pm 10.7 NW 14 19 1008.1 - 0.0 - Partly cloudy 10 - - - -
24/01:00pm 11.5 NW 20 25 1008.3 - 0.0 - - 10 - - - -
24/12:30pm 11.6 NNW 19 24 1008.9 - 0.0 - - 10 - - - -
24/12:00pm 11.5 NNW 17 23 1009.4 F 0.0 - Mostly clear 10 - - - -
24/11:30am 11.3 NW 15 21 1010.1 - 0.0 - - 10 - - - -
24/11:00am 10.9 NW 15 19 1010.6 - 0.0 - - 10 - - - -
24/10:30am 10.5 NNW 11 14 1010.9 - 0.0 - - 10 - - - -
24/10:00am 8.6 W 5 7 1011.1 - 0.0 - - 10 - - - -
24/09:30am 6.5 WNW 6 7 1011.3 - 0.0 - - 10 - - - -
24/09:00am 4.3 NE 3 4 1011.4 F 5.2 - - 10 - - - -
24/08:30am 4.0 NW 5 6 1011.5 - 5.2 - - 10 - - - -
24/08:00am 2.0 N 3 5 1011.5 - 5.2 - - 10 - - - -

Other Formats:

Comma delimited format used in spreadsheet applications
http://www.bom.gov.au/fwo/IDV60701/IDV60701.94907.axf

JavaScript Object Notation format (JSON) in row-major order
http://www.bom.gov.au/fwo/IDV60701/IDV60701.94907.json